Airfield :
LOGIN :

Register | Disclaimer

   EN    FR    IT 

 










Legend :    VFR   Marginal VFR   IFR   Intensive IFR   Very Intensive IFR
Visi :
Ceiling :
>= 8 km
>= 3000ft
5 to 8 km
1000 to 3000 ft
1500m to 5 km
500 to 1000 ft
800 to 1500m
200 to 500 ft
< 800m
< 200 ft
Symbols :   Thunderstorms  Fog  Heavy snow  Heavy precipitations  Wind > 20 kt
SIGMETs :     Misc.  Thunderstorms  Icing  Turbulence  Mountain Waves  Volcanic Ashes







- Airport Elevation : 587 ft
- IATA code : XCR
- Download approach charts


LFOK - Chalons Vatry

CURRENT METAR :
  • 241000Z AUTO 05004KT 350V090 CAVOK 17/13 Q1021 NOSIG

EXPIRED METARs :
  • 240930Z AUTO 02005KT 9999 3200 NSC 15/13 Q1021 NOSIG
  • 240900Z AUTO 03003KT CAVOK 14/12 Q1021 NOSIG
  • 240830Z AUTO VRB02KT 9000 NSC 13/12 Q1021 NOSIG
  • 240800Z AUTO 04003KT 020V080 7000 FEW001 12/11 Q1021 NOSIG
  • 240730Z AUTO 03003KT 5000 BR VV/// 10/10 Q1021 BECMG NSC

TAF TAF LFOK
Valid from the 24 at 06:00 until the 25 at 06:00 UTC


240500Z 2406/2506 10003KT 0500 FG VV///
BECMG 2406/2408 6000 NSW NSC
TEMPO 2501/2506 1500 BCFG
No reported NOTAMs for that airfield.



MET'MAP, your aeronautical weather chart ! - Copyright ORBIFLY December 2007 - Disclaimer

ORBIFLY MET'MAP TEAM :

Programming & Development : Alexandra Zaïnal
Concept & Development : Baudouin d'Aumeries
Co-Development & Prog : Marc-Olivier Méhu
Technical & hardware support : Manuel Goepfert

Contact : metmap@orbifly.com




SOURCES & CREDITS :

   NOAA